FFT1901 KSLC-KSAN
Flight info
| Callsign | FFT1901 |
|---|---|
| Flight time | 1h 33m |
| Altitude | 38000 |
| Route | EHK/N0456F370 NOOTN/N0455F380 TTRUE LUCKI1 |
| Aircraft | A320/M-SDE3FGHIRWY/LB1 |
Departure
| Time | 2026-04-24 19:43 |
|---|---|
| Airport | Salt Lake City International Airport (KSLC) |
Arrival
| Time | 2026-04-24 21:17 |
|---|---|
| Airport | San Diego International Airport (KSAN) |
| Time | Latitude | Longitude | Altitude | Speed | Heading |
|---|---|---|---|---|---|
| 2026-04-24 19:21 | 40.78937 | -111.98892 | 4231 ft | 0 kts | 175° |
| 2026-04-24 19:31 | 40.78960 | -111.98894 | 4230 ft | 4 kts | 175° |
| 2026-04-24 19:32 | 40.78986 | -111.98899 | 4230 ft | 4 kts | 162° |
| 2026-04-24 19:32 | 40.79008 | -111.98914 | 4230 ft | 4 kts | 124° |
| 2026-04-24 19:32 | 40.79014 | -111.98934 | 4229 ft | 0 kts | 85° |
| 2026-04-24 19:37 | 40.79017 | -111.98881 | 4231 ft | 13 kts | 85° |
| 2026-04-24 19:38 | 40.79028 | -111.98704 | 4231 ft | 21 kts | 85° |
| 2026-04-24 19:38 | 40.79040 | -111.98507 | 4231 ft | 22 kts | 85° |
| 2026-04-24 19:38 | 40.79054 | -111.98298 | 4231 ft | 23 kts | 85° |
| 2026-04-24 19:38 | 40.79066 | -111.98103 | 4231 ft | 21 kts | 85° |
| 2026-04-24 19:39 | 40.79078 | -111.97909 | 4231 ft | 18 kts | 85° |
| 2026-04-24 19:39 | 40.79086 | -111.97777 | 4231 ft | 13 kts | 85° |
| 2026-04-24 19:39 | 40.79040 | -111.97714 | 4231 ft | 10 kts | 174° |
| 2026-04-24 19:39 | 40.78971 | -111.97706 | 4232 ft | 11 kts | 175° |
| 2026-04-24 19:40 | 40.78871 | -111.97696 | 4231 ft | 19 kts | 176° |
| 2026-04-24 19:40 | 40.78703 | -111.97675 | 4231 ft | 29 kts | 176° |
| 2026-04-24 19:40 | 40.78563 | -111.97661 | 4231 ft | 33 kts | 175° |
| 2026-04-24 19:40 | 40.78345 | -111.97634 | 4230 ft | 30 kts | 173° |
| 2026-04-24 19:41 | 40.78138 | -111.97611 | 4230 ft | 30 kts | 174° |
| 2026-04-24 19:41 | 40.77942 | -111.97583 | 4262 ft | 27 kts | 162° |
| 2026-04-24 19:41 | 40.77767 | -111.97518 | 4262 ft | 26 kts | 174° |
| 2026-04-24 19:41 | 40.77583 | -111.97496 | 4262 ft | 26 kts | 174° |
| 2026-04-24 19:42 | 40.77447 | -111.97451 | 4261 ft | 13 kts | 120° |
| 2026-04-24 19:42 | 40.77476 | -111.97366 | 4260 ft | 16 kts | 48° |
| 2026-04-24 19:42 | 40.77583 | -111.97328 | 4260 ft | 18 kts | 355° |
| 2026-04-24 19:42 | 40.77718 | -111.97343 | 4261 ft | 22 kts | 355° |
| 2026-04-24 19:43 | 40.78071 | -111.97389 | 4262 ft | 85 kts | 355° |
| 2026-04-24 19:43 | 40.78867 | -111.97482 | 4233 ft | 141 kts | 355° |
| 2026-04-24 19:43 | 40.79978 | -111.97619 | 4522 ft | 164 kts | 353° |
| 2026-04-24 19:43 | 40.81092 | -111.97760 | 5395 ft | 161 kts | 348° |
| 2026-04-24 19:44 | 40.82220 | -111.97895 | 6049 ft | 168 kts | 353° |
| 2026-04-24 19:44 | 40.83425 | -111.97474 | 6411 ft | 197 kts | 33° |
| 2026-04-24 19:44 | 40.84321 | -111.95976 | 6715 ft | 226 kts | 68° |
| 2026-04-24 19:44 | 40.84681 | -111.93829 | 7077 ft | 254 kts | 84° |
| 2026-04-24 19:45 | 40.84400 | -111.91440 | 7498 ft | 276 kts | 115° |
| 2026-04-24 19:45 | 40.83231 | -111.89372 | 8077 ft | 287 kts | 147° |
| 2026-04-24 19:45 | 40.81503 | -111.88214 | 8886 ft | 284 kts | 170° |
| 2026-04-24 19:45 | 40.79591 | -111.87519 | 9663 ft | 287 kts | 171° |
| 2026-04-24 19:46 | 40.77635 | -111.86840 | 10144 ft | 289 kts | 170° |
| 2026-04-24 19:46 | 40.75603 | -111.86154 | 10537 ft | 313 kts | 171° |
| 2026-04-24 19:46 | 40.73407 | -111.85410 | 10861 ft | 337 kts | 171° |
| 2026-04-24 19:46 | 40.71038 | -111.85050 | 11260 ft | 347 kts | 189° |
| 2026-04-24 19:47 | 40.68732 | -111.85777 | 11965 ft | 347 kts | 201° |
| 2026-04-24 19:47 | 40.66416 | -111.86788 | 12762 ft | 353 kts | 202° |
| 2026-04-24 19:47 | 40.64074 | -111.87811 | 13591 ft | 356 kts | 202° |
| 2026-04-24 19:47 | 40.61705 | -111.88847 | 14286 ft | 361 kts | 202° |
| 2026-04-24 19:48 | 40.59302 | -111.89893 | 14986 ft | 366 kts | 202° |
| 2026-04-24 19:48 | 40.56871 | -111.90949 | 15680 ft | 370 kts | 203° |
| 2026-04-24 19:48 | 40.51936 | -111.93092 | 17047 ft | 377 kts | 204° |
| 2026-04-24 19:49 | 40.46897 | -111.95282 | 18332 ft | 384 kts | 204° |
| 2026-04-24 19:49 | 40.41770 | -111.97503 | 19449 ft | 391 kts | 204° |
| 2026-04-24 19:50 | 40.33910 | -112.00892 | 21132 ft | 401 kts | 204° |
| 2026-04-24 19:50 | 40.31251 | -112.02038 | 21676 ft | 404 kts | 204° |
| 2026-04-24 19:51 | 40.25869 | -112.04359 | 22728 ft | 410 kts | 204° |
| 2026-04-24 19:51 | 40.23181 | -112.05516 | 23158 ft | 414 kts | 204° |
| 2026-04-24 19:52 | 40.17654 | -112.07887 | 23933 ft | 420 kts | 204° |
| 2026-04-24 19:52 | 40.14872 | -112.09078 | 24336 ft | 422 kts | 204° |
| 2026-04-24 19:52 | 40.12074 | -112.10276 | 24738 ft | 424 kts | 204° |
| 2026-04-24 19:52 | 40.09266 | -112.11478 | 25136 ft | 426 kts | 204° |
| 2026-04-24 19:53 | 40.06445 | -112.12683 | 25519 ft | 427 kts | 204° |
| 2026-04-24 19:53 | 40.03617 | -112.13890 | 25886 ft | 429 kts | 204° |
| 2026-04-24 19:53 | 39.97910 | -112.16327 | 26603 ft | 433 kts | 205° |
| 2026-04-24 19:54 | 39.95043 | -112.17551 | 26980 ft | 434 kts | 205° |
| 2026-04-24 19:54 | 39.92168 | -112.18778 | 27344 ft | 436 kts | 205° |
| 2026-04-24 19:54 | 39.89284 | -112.20009 | 27695 ft | 437 kts | 205° |
| 2026-04-24 19:54 | 39.86386 | -112.21245 | 28037 ft | 439 kts | 205° |
| 2026-04-24 19:55 | 39.84463 | -112.22062 | 28264 ft | 440 kts | 205° |
| 2026-04-24 19:55 | 39.80564 | -112.23715 | 28721 ft | 441 kts | 205° |
| 2026-04-24 19:55 | 39.77651 | -112.24946 | 29179 ft | 439 kts | 205° |
| 2026-04-24 19:55 | 39.74746 | -112.26174 | 29669 ft | 437 kts | 205° |
| 2026-04-24 19:56 | 39.71901 | -112.27377 | 30117 ft | 435 kts | 205° |
| 2026-04-24 19:56 | 39.69028 | -112.28592 | 30511 ft | 433 kts | 205° |
| 2026-04-24 19:56 | 39.66168 | -112.29802 | 30902 ft | 432 kts | 205° |
| 2026-04-24 19:56 | 39.63318 | -112.31007 | 31283 ft | 431 kts | 205° |
| 2026-04-24 19:57 | 39.60468 | -112.32211 | 31672 ft | 430 kts | 205° |
| 2026-04-24 19:57 | 39.57627 | -112.33408 | 32053 ft | 429 kts | 205° |
| 2026-04-24 19:57 | 39.54789 | -112.34600 | 32403 ft | 428 kts | 205° |
| 2026-04-24 19:57 | 39.51958 | -112.35786 | 32781 ft | 427 kts | 205° |
| 2026-04-24 19:58 | 39.49135 | -112.36967 | 33159 ft | 426 kts | 205° |
| 2026-04-24 19:58 | 39.46319 | -112.38147 | 33541 ft | 425 kts | 205° |
| 2026-04-24 19:58 | 39.43513 | -112.39327 | 33909 ft | 424 kts | 205° |
| 2026-04-24 19:58 | 39.40710 | -112.40506 | 34221 ft | 423 kts | 205° |
| 2026-04-24 19:59 | 39.37908 | -112.41686 | 34515 ft | 423 kts | 205° |
| 2026-04-24 19:59 | 39.35112 | -112.42863 | 34795 ft | 423 kts | 205° |
| 2026-04-24 19:59 | 39.32300 | -112.44042 | 35040 ft | 424 kts | 205° |
| 2026-04-24 19:59 | 39.29491 | -112.45215 | 35317 ft | 424 kts | 205° |
| 2026-04-24 20:00 | 39.26685 | -112.46386 | 35556 ft | 424 kts | 205° |
| 2026-04-24 20:00 | 39.23871 | -112.47557 | 35821 ft | 425 kts | 205° |
| 2026-04-24 20:00 | 39.21056 | -112.48729 | 36086 ft | 425 kts | 205° |
| 2026-04-24 20:00 | 39.18239 | -112.49903 | 36354 ft | 425 kts | 205° |
| 2026-04-24 20:01 | 39.15467 | -112.51058 | 36558 ft | 425 kts | 205° |
| 2026-04-24 20:01 | 39.12652 | -112.52232 | 36766 ft | 425 kts | 205° |
| 2026-04-24 20:01 | 39.09835 | -112.53405 | 36800 ft | 425 kts | 205° |
| 2026-04-24 20:02 | 39.05155 | -112.55344 | 36822 ft | 425 kts | 205° |
| 2026-04-24 20:02 | 38.98588 | -112.58068 | 36831 ft | 424 kts | 205° |
| 2026-04-24 20:03 | 38.92964 | -112.60391 | 36812 ft | 424 kts | 205° |
| 2026-04-24 20:03 | 38.87347 | -112.62707 | 36816 ft | 424 kts | 205° |
| 2026-04-24 20:04 | 38.81733 | -112.65022 | 36827 ft | 423 kts | 205° |
| 2026-04-24 20:04 | 38.76125 | -112.67332 | 36882 ft | 422 kts | 205° |
| 2026-04-24 20:04 | 38.73334 | -112.68481 | 37146 ft | 422 kts | 205° |
| 2026-04-24 20:05 | 38.70543 | -112.69629 | 37424 ft | 421 kts | 205° |
| 2026-04-24 20:05 | 38.67764 | -112.70770 | 37707 ft | 419 kts | 205° |
| 2026-04-24 20:05 | 38.64978 | -112.71912 | 37821 ft | 421 kts | 205° |
| 2026-04-24 20:06 | 38.59424 | -112.74179 | 37860 ft | 421 kts | 205° |
| 2026-04-24 20:06 | 38.53847 | -112.76455 | 37869 ft | 421 kts | 205° |
| 2026-04-24 20:07 | 38.49178 | -112.78365 | 37873 ft | 421 kts | 205° |
| 2026-04-24 20:07 | 38.42699 | -112.81011 | 37888 ft | 420 kts | 205° |
| 2026-04-24 20:08 | 38.37128 | -112.83281 | 37889 ft | 420 kts | 205° |
| 2026-04-24 20:08 | 38.31553 | -112.85545 | 37884 ft | 421 kts | 205° |
| 2026-04-24 20:09 | 38.25974 | -112.87809 | 37877 ft | 420 kts | 205° |
| 2026-04-24 20:09 | 38.20397 | -112.90066 | 37867 ft | 421 kts | 205° |
| 2026-04-24 20:10 | 38.14826 | -112.92312 | 37849 ft | 419 kts | 205° |
| 2026-04-24 20:10 | 38.09267 | -112.94551 | 37844 ft | 418 kts | 205° |
| 2026-04-24 20:11 | 38.03724 | -112.96785 | 37845 ft | 417 kts | 205° |
| 2026-04-24 20:11 | 37.98192 | -112.99018 | 37833 ft | 417 kts | 205° |
| 2026-04-24 20:12 | 37.92686 | -113.01228 | 37869 ft | 417 kts | 205° |
| 2026-04-24 20:12 | 37.87164 | -113.03439 | 37925 ft | 416 kts | 205° |
| 2026-04-24 20:13 | 37.81649 | -113.05646 | 37947 ft | 416 kts | 205° |
| 2026-04-24 20:13 | 37.76010 | -113.07485 | 37961 ft | 423 kts | 199° |
| 2026-04-24 20:14 | 37.70233 | -113.08876 | 37961 ft | 423 kts | 199° |
| 2026-04-24 20:14 | 37.64460 | -113.10257 | 37964 ft | 422 kts | 199° |
| 2026-04-24 20:15 | 37.58692 | -113.11641 | 37956 ft | 422 kts | 199° |
| 2026-04-24 20:15 | 37.52929 | -113.13031 | 37928 ft | 422 kts | 199° |
| 2026-04-24 20:16 | 37.47148 | -113.14420 | 37928 ft | 423 kts | 199° |
| 2026-04-24 20:16 | 37.41384 | -113.15809 | 37904 ft | 421 kts | 199° |
| 2026-04-24 20:17 | 37.35637 | -113.17191 | 37879 ft | 420 kts | 199° |
| 2026-04-24 20:17 | 37.27013 | -113.19238 | 37877 ft | 421 kts | 199° |
| 2026-04-24 20:18 | 37.21298 | -113.20592 | 37871 ft | 420 kts | 200° |
| 2026-04-24 20:18 | 37.15540 | -113.21951 | 37912 ft | 420 kts | 200° |
| 2026-04-24 20:19 | 37.09793 | -113.23316 | 37932 ft | 420 kts | 200° |
| 2026-04-24 20:19 | 37.04049 | -113.24692 | 37946 ft | 420 kts | 200° |
| 2026-04-24 20:20 | 36.98295 | -113.26058 | 37927 ft | 421 kts | 200° |
| 2026-04-24 20:20 | 36.92537 | -113.27408 | 37931 ft | 421 kts | 200° |
| 2026-04-24 20:21 | 36.86788 | -113.28764 | 37927 ft | 421 kts | 200° |
| 2026-04-24 20:21 | 36.81032 | -113.30115 | 37912 ft | 421 kts | 200° |
| 2026-04-24 20:22 | 36.75275 | -113.31470 | 37854 ft | 421 kts | 200° |
| 2026-04-24 20:22 | 36.69522 | -113.32824 | 37849 ft | 421 kts | 200° |
| 2026-04-24 20:23 | 36.63805 | -113.34186 | 37863 ft | 419 kts | 203° |
| 2026-04-24 20:23 | 36.61064 | -113.35257 | 37866 ft | 408 kts | 212° |
| 2026-04-24 20:23 | 36.58471 | -113.36647 | 37867 ft | 407 kts | 212° |
| 2026-04-24 20:24 | 36.53265 | -113.39440 | 37878 ft | 407 kts | 212° |
| 2026-04-24 20:24 | 36.48060 | -113.42219 | 37860 ft | 407 kts | 212° |
| 2026-04-24 20:25 | 36.42862 | -113.44988 | 37881 ft | 406 kts | 212° |
| 2026-04-24 20:25 | 36.37672 | -113.47760 | 37888 ft | 406 kts | 212° |
| 2026-04-24 20:26 | 36.32484 | -113.50529 | 37882 ft | 406 kts | 212° |
| 2026-04-24 20:26 | 36.27302 | -113.53295 | 37883 ft | 405 kts | 212° |
| 2026-04-24 20:27 | 36.22146 | -113.56032 | 37856 ft | 405 kts | 212° |
| 2026-04-24 20:27 | 36.16964 | -113.58769 | 37872 ft | 405 kts | 212° |
| 2026-04-24 20:28 | 36.11791 | -113.61508 | 37876 ft | 404 kts | 212° |
| 2026-04-24 20:28 | 36.06625 | -113.64243 | 37866 ft | 404 kts | 212° |
| 2026-04-24 20:29 | 36.01449 | -113.66975 | 37861 ft | 404 kts | 212° |
| 2026-04-24 20:29 | 35.96283 | -113.69699 | 37851 ft | 404 kts | 212° |
| 2026-04-24 20:30 | 35.91113 | -113.72425 | 37845 ft | 403 kts | 212° |
| 2026-04-24 20:30 | 35.86779 | -113.74709 | 37846 ft | 404 kts | 212° |
| 2026-04-24 20:31 | 35.81618 | -113.77415 | 37829 ft | 403 kts | 212° |
| 2026-04-24 20:31 | 35.76490 | -113.80103 | 37831 ft | 403 kts | 212° |
| 2026-04-24 20:32 | 35.71329 | -113.82804 | 37783 ft | 403 kts | 212° |
| 2026-04-24 20:32 | 35.66161 | -113.85507 | 37800 ft | 404 kts | 212° |
| 2026-04-24 20:33 | 35.60989 | -113.88214 | 37811 ft | 404 kts | 212° |
| 2026-04-24 20:33 | 35.55816 | -113.90913 | 37846 ft | 404 kts | 212° |
| 2026-04-24 20:34 | 35.50630 | -113.93601 | 37879 ft | 404 kts | 212° |
| 2026-04-24 20:34 | 35.45450 | -113.96287 | 37887 ft | 404 kts | 212° |
| 2026-04-24 20:35 | 35.40266 | -113.98975 | 37919 ft | 404 kts | 212° |
| 2026-04-24 20:35 | 35.35079 | -114.01666 | 37948 ft | 405 kts | 212° |
| 2026-04-24 20:36 | 35.29895 | -114.04351 | 37964 ft | 405 kts | 212° |
| 2026-04-24 20:36 | 35.24705 | -114.07034 | 37941 ft | 405 kts | 212° |
| 2026-04-24 20:37 | 35.19521 | -114.09709 | 37913 ft | 405 kts | 212° |
| 2026-04-24 20:37 | 35.14329 | -114.12385 | 37808 ft | 405 kts | 212° |
| 2026-04-24 20:38 | 35.09133 | -114.15064 | 37815 ft | 405 kts | 212° |
| 2026-04-24 20:38 | 35.03940 | -114.17744 | 37820 ft | 405 kts | 212° |
| 2026-04-24 20:39 | 34.98746 | -114.20417 | 37821 ft | 405 kts | 212° |
| 2026-04-24 20:39 | 34.93585 | -114.23061 | 37781 ft | 405 kts | 212° |
| 2026-04-24 20:40 | 34.88384 | -114.25721 | 37800 ft | 406 kts | 212° |
| 2026-04-24 20:40 | 34.83173 | -114.28382 | 37812 ft | 406 kts | 212° |
| 2026-04-24 20:41 | 34.77956 | -114.31042 | 37819 ft | 406 kts | 212° |
| 2026-04-24 20:41 | 34.72739 | -114.33702 | 37841 ft | 406 kts | 212° |
| 2026-04-24 20:42 | 34.67526 | -114.36350 | 37816 ft | 406 kts | 212° |
| 2026-04-24 20:42 | 34.62729 | -114.39665 | 37788 ft | 388 kts | 228° |
| 2026-04-24 20:43 | 34.59103 | -114.44380 | 37814 ft | 381 kts | 235° |
| 2026-04-24 20:43 | 34.55612 | -114.49225 | 37824 ft | 382 kts | 235° |
| 2026-04-24 20:44 | 34.52104 | -114.54062 | 37825 ft | 382 kts | 235° |
| 2026-04-24 20:44 | 34.48596 | -114.58899 | 37827 ft | 382 kts | 235° |
| 2026-04-24 20:45 | 34.46838 | -114.61322 | 37647 ft | 383 kts | 235° |
| 2026-04-24 20:45 | 34.45107 | -114.63708 | 37364 ft | 382 kts | 235° |
| 2026-04-24 20:45 | 34.43354 | -114.66122 | 37111 ft | 381 kts | 235° |
| 2026-04-24 20:45 | 34.41603 | -114.68530 | 36845 ft | 381 kts | 234° |
| 2026-04-24 20:46 | 34.39848 | -114.70939 | 36589 ft | 381 kts | 234° |
| 2026-04-24 20:46 | 34.38096 | -114.73341 | 36319 ft | 381 kts | 234° |
| 2026-04-24 20:46 | 34.36346 | -114.75741 | 36048 ft | 380 kts | 234° |
| 2026-04-24 20:46 | 34.34601 | -114.78137 | 35848 ft | 380 kts | 234° |
| 2026-04-24 20:47 | 34.31094 | -114.82931 | 35836 ft | 380 kts | 234° |
| 2026-04-24 20:47 | 34.27588 | -114.87729 | 35834 ft | 381 kts | 234° |
| 2026-04-24 20:48 | 34.24079 | -114.92527 | 35835 ft | 381 kts | 234° |
| 2026-04-24 20:48 | 34.20563 | -114.97311 | 35836 ft | 381 kts | 234° |
| 2026-04-24 20:49 | 34.17037 | -115.02093 | 35831 ft | 381 kts | 234° |
| 2026-04-24 20:49 | 34.13543 | -115.06843 | 35835 ft | 380 kts | 234° |
| 2026-04-24 20:50 | 34.10030 | -115.11616 | 35837 ft | 380 kts | 234° |
| 2026-04-24 20:50 | 34.06508 | -115.16386 | 35841 ft | 380 kts | 234° |
| 2026-04-24 20:51 | 34.02985 | -115.21144 | 35844 ft | 381 kts | 234° |
| 2026-04-24 20:51 | 33.99451 | -115.25910 | 35847 ft | 381 kts | 234° |
| 2026-04-24 20:52 | 33.95923 | -115.30688 | 35852 ft | 382 kts | 234° |
| 2026-04-24 20:52 | 33.92395 | -115.35482 | 35852 ft | 382 kts | 234° |
| 2026-04-24 20:53 | 33.88866 | -115.40269 | 35859 ft | 382 kts | 234° |
| 2026-04-24 20:53 | 33.85324 | -115.45052 | 35861 ft | 383 kts | 234° |
| 2026-04-24 20:54 | 33.81782 | -115.49829 | 35858 ft | 383 kts | 234° |
| 2026-04-24 20:54 | 33.78234 | -115.54609 | 35865 ft | 383 kts | 234° |
| 2026-04-24 20:55 | 33.74686 | -115.59377 | 35864 ft | 383 kts | 234° |
| 2026-04-24 20:55 | 33.71140 | -115.64144 | 35863 ft | 382 kts | 234° |
| 2026-04-24 20:56 | 33.67592 | -115.68882 | 35868 ft | 381 kts | 233° |
| 2026-04-24 20:56 | 33.65830 | -115.71208 | 35741 ft | 383 kts | 233° |
| 2026-04-24 20:56 | 33.64020 | -115.73593 | 34803 ft | 389 kts | 233° |
| 2026-04-24 20:57 | 33.62206 | -115.76019 | 33945 ft | 390 kts | 236° |
| 2026-04-24 20:57 | 33.60614 | -115.78651 | 32883 ft | 392 kts | 239° |
| 2026-04-24 20:57 | 33.59054 | -115.81353 | 31805 ft | 396 kts | 239° |
| 2026-04-24 20:57 | 33.57479 | -115.84092 | 30752 ft | 401 kts | 239° |
| 2026-04-24 20:58 | 33.55889 | -115.86861 | 29698 ft | 405 kts | 238° |
| 2026-04-24 20:58 | 33.54281 | -115.89651 | 28520 ft | 408 kts | 238° |
| 2026-04-24 20:58 | 33.52656 | -115.92458 | 27379 ft | 411 kts | 238° |
| 2026-04-24 20:58 | 33.51019 | -115.95278 | 26260 ft | 412 kts | 238° |
| 2026-04-24 20:59 | 33.49375 | -115.98112 | 25194 ft | 417 kts | 238° |
| 2026-04-24 20:59 | 33.47714 | -116.00978 | 24459 ft | 418 kts | 238° |
| 2026-04-24 20:59 | 33.46058 | -116.03830 | 23845 ft | 416 kts | 238° |
| 2026-04-24 20:59 | 33.44412 | -116.06666 | 23188 ft | 413 kts | 239° |
| 2026-04-24 21:00 | 33.42779 | -116.09483 | 22550 ft | 409 kts | 238° |
| 2026-04-24 21:00 | 33.41160 | -116.12277 | 21960 ft | 406 kts | 238° |
| 2026-04-24 21:00 | 33.39553 | -116.15042 | 21356 ft | 403 kts | 238° |
| 2026-04-24 21:00 | 33.37955 | -116.17781 | 20762 ft | 401 kts | 238° |
| 2026-04-24 21:01 | 33.36374 | -116.20485 | 20189 ft | 400 kts | 238° |
| 2026-04-24 21:01 | 33.34685 | -116.23103 | 19590 ft | 397 kts | 231° |
| 2026-04-24 21:01 | 33.32634 | -116.25323 | 19001 ft | 399 kts | 221° |
| 2026-04-24 21:01 | 33.30258 | -116.27058 | 18434 ft | 402 kts | 211° |
| 2026-04-24 21:02 | 33.27754 | -116.28520 | 17803 ft | 399 kts | 211° |
| 2026-04-24 21:02 | 33.25263 | -116.29969 | 17204 ft | 397 kts | 211° |
| 2026-04-24 21:02 | 33.22784 | -116.31415 | 16617 ft | 396 kts | 210° |
| 2026-04-24 21:02 | 33.20313 | -116.32857 | 16026 ft | 394 kts | 210° |
| 2026-04-24 21:03 | 33.17852 | -116.34295 | 15434 ft | 392 kts | 210° |
| 2026-04-24 21:03 | 33.15408 | -116.35726 | 14855 ft | 391 kts | 210° |
| 2026-04-24 21:03 | 33.13001 | -116.37132 | 14601 ft | 376 kts | 209° |
| 2026-04-24 21:03 | 33.10702 | -116.38471 | 14515 ft | 360 kts | 210° |
| 2026-04-24 21:04 | 33.08495 | -116.39757 | 14395 ft | 346 kts | 210° |
| 2026-04-24 21:04 | 33.06376 | -116.40989 | 14276 ft | 332 kts | 210° |
| 2026-04-24 21:04 | 33.04338 | -116.42175 | 14107 ft | 321 kts | 210° |
| 2026-04-24 21:04 | 33.02355 | -116.43334 | 13943 ft | 316 kts | 210° |
| 2026-04-24 21:05 | 33.00438 | -116.44581 | 13882 ft | 312 kts | 218° |
| 2026-04-24 21:05 | 32.98745 | -116.46195 | 13410 ft | 313 kts | 223° |
| 2026-04-24 21:05 | 32.97090 | -116.47876 | 12903 ft | 312 kts | 224° |
| 2026-04-24 21:05 | 32.95449 | -116.49545 | 12468 ft | 309 kts | 223° |
| 2026-04-24 21:06 | 32.93816 | -116.51204 | 11984 ft | 309 kts | 223° |
| 2026-04-24 21:06 | 32.92205 | -116.52835 | 11553 ft | 307 kts | 222° |
| 2026-04-24 21:06 | 32.90579 | -116.54481 | 11134 ft | 306 kts | 222° |
| 2026-04-24 21:06 | 32.88959 | -116.56118 | 10705 ft | 304 kts | 222° |
| 2026-04-24 21:07 | 32.87353 | -116.57734 | 10385 ft | 299 kts | 222° |
| 2026-04-24 21:07 | 32.85792 | -116.59300 | 10271 ft | 288 kts | 222° |
| 2026-04-24 21:07 | 32.84282 | -116.60814 | 10074 ft | 281 kts | 222° |
| 2026-04-24 21:07 | 32.82797 | -116.62304 | 9770 ft | 279 kts | 221° |
| 2026-04-24 21:08 | 32.81313 | -116.63796 | 9377 ft | 278 kts | 222° |
| 2026-04-24 21:08 | 32.79844 | -116.65278 | 9019 ft | 275 kts | 222° |
| 2026-04-24 21:08 | 32.78390 | -116.66746 | 8670 ft | 273 kts | 223° |
| 2026-04-24 21:08 | 32.77120 | -116.68401 | 8333 ft | 270 kts | 237° |
| 2026-04-24 21:09 | 32.76186 | -116.70316 | 7990 ft | 267 kts | 241° |
| 2026-04-24 21:09 | 32.75280 | -116.72238 | 7658 ft | 265 kts | 242° |
| 2026-04-24 21:09 | 32.74377 | -116.74144 | 7328 ft | 263 kts | 242° |
| 2026-04-24 21:09 | 32.73484 | -116.76022 | 7003 ft | 259 kts | 242° |
| 2026-04-24 21:10 | 32.72605 | -116.77872 | 6682 ft | 256 kts | 241° |
| 2026-04-24 21:10 | 32.71734 | -116.79708 | 6360 ft | 254 kts | 242° |
| 2026-04-24 21:10 | 32.70874 | -116.81531 | 6030 ft | 252 kts | 243° |
| 2026-04-24 21:10 | 32.70234 | -116.83436 | 5721 ft | 246 kts | 251° |
| 2026-04-24 21:11 | 32.69650 | -116.85331 | 5431 ft | 242 kts | 250° |
| 2026-04-24 21:11 | 32.69078 | -116.87197 | 5148 ft | 237 kts | 255° |
| 2026-04-24 21:11 | 32.68878 | -116.89083 | 4866 ft | 226 kts | 273° |
| 2026-04-24 21:11 | 32.68988 | -116.90897 | 4599 ft | 216 kts | 274° |
| 2026-04-24 21:12 | 32.69090 | -116.92637 | 4371 ft | 207 kts | 274° |
| 2026-04-24 21:12 | 32.69152 | -116.93757 | 4195 ft | 204 kts | 274° |
| 2026-04-24 21:12 | 32.69273 | -116.95970 | 3853 ft | 200 kts | 273° |
| 2026-04-24 21:12 | 32.69363 | -116.97628 | 3616 ft | 199 kts | 273° |
| 2026-04-24 21:13 | 32.69454 | -116.99263 | 3381 ft | 198 kts | 273° |
| 2026-04-24 21:13 | 32.69545 | -117.00894 | 3144 ft | 198 kts | 272° |
| 2026-04-24 21:13 | 32.69635 | -117.02514 | 2902 ft | 194 kts | 271° |
| 2026-04-24 21:13 | 32.69754 | -117.04121 | 2664 ft | 196 kts | 278° |
| 2026-04-24 21:14 | 32.70114 | -117.05679 | 2424 ft | 195 kts | 283° |
| 2026-04-24 21:14 | 32.70486 | -117.07203 | 2166 ft | 188 kts | 282° |
| 2026-04-24 21:14 | 32.70724 | -117.08164 | 2026 ft | 180 kts | 284° |
| 2026-04-24 21:14 | 32.71176 | -117.10002 | 1675 ft | 165 kts | 284° |
| 2026-04-24 21:15 | 32.71381 | -117.10838 | 1483 ft | 154 kts | 282° |
| 2026-04-24 21:15 | 32.71760 | -117.12395 | 1166 ft | 145 kts | 283° |
| 2026-04-24 21:15 | 32.72030 | -117.13508 | 940 ft | 135 kts | 284° |
| 2026-04-24 21:15 | 32.72286 | -117.14553 | 740 ft | 129 kts | 282° |
| 2026-04-24 21:16 | 32.72532 | -117.15562 | 558 ft | 126 kts | 282° |
| 2026-04-24 21:16 | 32.72700 | -117.16230 | 410 ft | 124 kts | 282° |
| 2026-04-24 21:16 | 32.72936 | -117.17208 | 223 ft | 124 kts | 282° |
| 2026-04-24 21:16 | 32.73170 | -117.18189 | 58 ft | 123 kts | 283° |
| 2026-04-24 21:17 | 32.73383 | -117.19107 | 28 ft | 102 kts | 285° |
| 2026-04-24 21:17 | 32.73507 | -117.19603 | 24 ft | 35 kts | 285° |
| 2026-04-24 21:17 | 32.73516 | -117.19815 | 26 ft | 19 kts | 250° |
| 2026-04-24 21:17 | 32.73491 | -117.19898 | 23 ft | 0 kts | 251° |
| 2026-04-24 21:18 | 32.73489 | -117.19910 | 23 ft | 6 kts | 256° |
| 2026-04-24 21:19 | 32.73501 | -117.19993 | 23 ft | 9 kts | 286° |
| 2026-04-24 21:19 | 32.73521 | -117.20077 | 24 ft | 12 kts | 286° |
| 2026-04-24 21:19 | 32.73546 | -117.20179 | 23 ft | 14 kts | 286° |
| 2026-04-24 21:19 | 32.73483 | -117.20248 | 23 ft | 13 kts | 196° |
| 2026-04-24 21:20 | 32.73424 | -117.20297 | 23 ft | 1 kts | 262° |
| 2026-04-24 21:20 | 32.73421 | -117.20314 | 23 ft | 4 kts | 260° |
| 2026-04-24 21:20 | 32.73418 | -117.20335 | 23 ft | 2 kts | 261° |
| 2026-04-24 21:21 | 32.73418 | -117.20340 | 24 ft | 0 kts | 262° |